Energeia — 5BLT4 — position and weather

sailwx.info

Track history (hours):
 
Tides and Currents Weather Stations Pressure Air Temp Water Temp Dewpoint Dewpoint Depression Visibility Wind Speed Wind Dir Waves Ship Positions

Energeia

Last reported at 2017-Sep-19 19:46 UTC. Time now 2017-Sep-19 22:39 UTC.
Position N 38°33' E 024°24'.

Length 89 m; draft 6 m.

Type: Ship (hazmat cat D). MMSI: 210096000.

Date/timePositionNaut miles runAvg speedWind from/ knotsBaromVisibWave heightAir tempDewpointWater temp
2017-Sep-19 19:46N 38°33' E 024°24'312.5
2017-Sep-19 19:30N 38°36' E 024°22'612.0
2017-Sep-19 19:00N 38°41' E 024°18'51 1.4
2017-Sep-18 06:01N 39°17' E 023°31'5010.5
2017-Sep-18 01:15N 38°42' E 024°17'310.8
2017-Sep-18 01:00N 38°40' E 024°19'610.8
2017-Sep-18 00:26N 38°35' E 024°23'63 8.9
2017-Sep-17 17:20N 37°35' E 023°57'411.5
2017-Sep-17 17:00N 37°36' E 023°52'611.4
2017-Sep-17 16:30N 37°39' E 023°45'510.9
2017-Sep-17 16:00N 37°42' E 023°41'611.5
2017-Sep-17 15:30N 37°48' E 023°37'611.3
2017-Sep-17 15:00N 37°53' E 023°36'5 9.4
2017-Sep-17 14:30N 37°57' E 023°33'4 8.7
2017-Sep-17 14:00N 38°01' E 023°35'0 0.5
2017-Sep-17 13:30N 38°02' E 023°36'0 0.0
2017-Sep-17 13:00N 38°02' E 023°36'0 0.0
2017-Sep-17 12:30N 38°02' E 023°36'0 0.0
2017-Sep-17 12:00N 38°02' E 023°36'0 0.0
2017-Sep-17 10:00N 38°02' E 023°36'0 0.0
2017-Sep-17 09:18N 38°02' E 023°36'0 0.0
2017-Sep-17 09:00N 38°02' E 023°36'0 0.0
2017-Sep-17 06:06N 38°02' E 023°36'0 0.0
2017-Sep-16 23:12N 38°02' E 023°36'0 0.0
2017-Sep-16 23:00N 38°02' E 023°36'0 0.0
2017-Sep-16 22:30N 38°02' E 023°36'0 0.0
2017-Sep-16 22:00N 38°02' E 023°36'0 0.0
2017-Sep-16 21:30N 38°02' E 023°36'0 0.0
2017-Sep-16 21:00N 38°02' E 023°36'0 0.0
2017-Sep-16 20:30N 38°02' E 023°36'0 0.0
2017-Sep-16 20:00N 38°02' E 023°36'0 0.0
2017-Sep-16 19:30N 38°02' E 023°36'0 0.0
2017-Sep-16 19:00N 38°02' E 023°36'0 0.0
2017-Sep-16 18:30N 38°02' E 023°36'0 0.0
2017-Sep-16 18:00N 38°02' E 023°36'0 0.0
2017-Sep-16 17:30N 38°02' E 023°36'0 0.0
2017-Sep-16 17:00N 38°02' E 023°36'1 2.5
2017-Sep-16 16:30N 38°01' E 023°34'2 3.4
2017-Sep-16 16:00N 38°02' E 023°32'0 0.0
2017-Sep-16 15:30N 38°02' E 023°32'0 0.0
2017-Sep-16 15:00N 38°02' E 023°32'0 0.0
2017-Sep-16 14:30N 38°02' E 023°32'0 0.0
2017-Sep-16 14:00N 38°02' E 023°32'0 0.1
2017-Sep-16 13:30N 38°02' E 023°32'0 0.0
2017-Sep-16 13:00N 38°02' E 023°32'0 0.0
2017-Sep-16 12:30N 38°02' E 023°32'0 0.0
2017-Sep-16 11:57N 38°02' E 023°32'0 0.0
2017-Sep-16 11:30N 38°02' E 023°32'0 0.0
2017-Sep-16 11:00N 38°02' E 023°32'0 0.0
2017-Sep-16 10:30N 38°02' E 023°32'0 0.0
2017-Sep-16 10:00N 38°02' E 023°32'0 0.0
2017-Sep-16 09:30N 38°02' E 023°32'0 0.0
2017-Sep-16 08:57N 38°02' E 023°32'0 0.1
2017-Sep-16 08:30N 38°02' E 023°32'0 0.0
2017-Sep-16 08:00N 38°02' E 023°32'0 0.1
2017-Sep-16 07:21N 38°02' E 023°32'0 0.0
2017-Sep-16 07:00N 38°02' E 023°32'0 0.0
2017-Sep-16 06:24N 38°02' E 023°32'0 0.0
2017-Sep-16 06:00N 38°02' E 023°32'0 0.0
2017-Sep-16 05:27N 38°02' E 023°32'0 0.1
2017-Sep-16 05:00N 38°02' E 023°32'0 0.0
2017-Sep-16 04:30N 38°02' E 023°32'0 0.0
2017-Sep-16 03:54N 38°02' E 023°32'0 0.1
2017-Sep-16 03:30N 38°02' E 023°32'0 0.0
2017-Sep-16 03:00N 38°02' E 023°32'0 0.1
2017-Sep-16 02:30N 38°02' E 023°32'0 0.0
2017-Sep-16 02:00N 38°02' E 023°32'0 0.1
2017-Sep-16 01:30N 38°02' E 023°32'0 0.0
2017-Sep-16 00:54N 38°02' E 023°32'0 0.0
2017-Sep-16 00:30N 38°02' E 023°32'0 0.0
2017-Sep-16 00:00N 38°02' E 023°32'0 0.0
2017-Sep-15 23:30N 38°02' E 023°32'0 0.0
2017-Sep-15 23:00N 38°02' E 023°32'0 0.0
2017-Sep-15 22:30N 38°02' E 023°32'0 0.0
2017-Sep-15 22:00N 38°02' E 023°32'0 0.0
2017-Sep-15 21:27N 38°02' E 023°32'0 0.0
2017-Sep-15 21:00N 38°02' E 023°32'0 0.0
2017-Sep-15 20:30N 38°02' E 023°32'0 0.0
2017-Sep-15 20:00N 38°02' E 023°32'0 0.1
2017-Sep-15 19:30N 38°02' E 023°32'0 0.2
2017-Sep-15 18:57N 38°02' E 023°32'0 0.1
2017-Sep-15 18:30N 38°02' E 023°32'0 0.0
2017-Sep-15 18:00N 38°02' E 023°32'0 0.0
2017-Sep-15 17:30N 38°02' E 023°32'0 0.0
2017-Sep-15 17:00N 38°02' E 023°32'0 0.0
2017-Sep-15 16:30N 38°02' E 023°32'0 0.0
2017-Sep-15 16:00N 38°02' E 023°32'0 0.0
2017-Sep-15 15:30N 38°02' E 023°32'0 0.0
2017-Sep-15 15:00N 38°02' E 023°32'0 0.0
2017-Sep-15 14:30N 38°02' E 023°32'0 0.0
2017-Sep-15 13:57N 38°02' E 023°32'0 0.0
2017-Sep-15 13:29N 38°02' E 023°32'0 0.1
2017-Sep-15 12:59N 38°02' E 023°32'0 0.0
2017-Sep-15 12:29N 38°02' E 023°32'0 0.0
2017-Sep-15 11:59N 38°02' E 023°32'0 0.0
2017-Sep-15 11:29N 38°02' E 023°32'0 0.0
2017-Sep-15 10:59N 38°02' E 023°32'0 0.0
2017-Sep-15 10:29N 38°02' E 023°32'0 0.0
2017-Sep-15 09:59N 38°02' E 023°32'0 0.0
2017-Sep-15 09:23N 38°02' E 023°32'0 0.0
2017-Sep-15 08:59N 38°02' E 023°32'0 0.0
2017-Sep-15 08:29N 38°02' E 023°32'0 0.1
2017-Sep-15 07:59N 38°02' E 023°32'0 0.1
2017-Sep-15 07:29N 38°02' E 023°32'0 0.0
2017-Sep-15 06:56N 38°02' E 023°32'0 0.0
2017-Sep-15 06:26N 38°02' E 023°32'0 0.0
2017-Sep-15 05:59N 38°02' E 023°32'0 0.1
2017-Sep-15 05:29N 38°02' E 023°32'0 0.0
2017-Sep-15 04:59N 38°02' E 023°32'0 0.0
2017-Sep-15 04:29N 38°02' E 023°32'0 0.0
2017-Sep-15 03:59N 38°02' E 023°32'0 0.0
2017-Sep-15 03:26N 38°02' E 023°32'0 0.0
2017-Sep-15 02:59N 38°02' E 023°32'0 0.0
2017-Sep-15 02:29N 38°02' E 023°32'0 0.0
2017-Sep-15 01:59N 38°02' E 023°32'0 0.1
2017-Sep-15 01:29N 38°02' E 023°32'0 0.0
2017-Sep-15 00:59N 38°02' E 023°32'0 0.0
2017-Sep-15 00:29N 38°02' E 023°32'0 0.0
2017-Sep-14 23:59N 38°02' E 023°32'0 0.0
2017-Sep-14 23:29N 38°02' E 023°32'0 0.0
2017-Sep-14 22:59N 38°02' E 023°32'0 0.0
2017-Sep-14 22:29N 38°02' E 023°32'0 0.0
2017-Sep-14 21:59N 38°02' E 023°32'0 0.0
2017-Sep-14 21:29N 38°02' E 023°32'0 0.0
2017-Sep-14 20:59N 38°02' E 023°32'0 0.0
2017-Sep-14 20:29N 38°02' E 023°32'0 0.1
2017-Sep-14 19:59N 38°02' E 023°32'0 0.0
2017-Sep-14 19:29N 38°02' E 023°32'0 0.1
2017-Sep-14 18:59N 38°02' E 023°32'0 0.1
2017-Sep-14 18:29N 38°02' E 023°32'0 0.0
2017-Sep-14 17:59N 38°02' E 023°32'0 0.0
2017-Sep-14 17:29N 38°02' E 023°32'0 0.0
2017-Sep-14 16:59N 38°02' E 023°32'0 0.0
2017-Sep-14 16:29N 38°02' E 023°32'0 0.0
2017-Sep-14 15:59N 38°02' E 023°32'0 0.2
2017-Sep-14 15:29N 38°02' E 023°32'0 0.0
2017-Sep-14 14:56N 38°02' E 023°32'0 0.0
2017-Sep-14 14:29N 38°02' E 023°32'0 0.0
2017-Sep-14 13:56N 38°02' E 023°32'0 0.0
2017-Sep-14 13:23N 38°02' E 023°32'0 0.0
2017-Sep-14 12:59N 38°02' E 023°32'0 0.0
2017-Sep-14 12:29N 38°02' E 023°32'0 0.0
2017-Sep-14 11:59N 38°02' E 023°32'0 0.0
2017-Sep-14 11:29N 38°02' E 023°32'0 0.0
2017-Sep-14 10:59N 38°02' E 023°32'0 0.0
2017-Sep-14 10:26N 38°02' E 023°32'0 0.0
2017-Sep-14 09:59N 38°02' E 023°32'0 0.0
2017-Sep-14 09:29N 38°02' E 023°32'0 0.2
2017-Sep-14 08:59N 38°02' E 023°32'0 0.0
2017-Sep-14 08:29N 38°02' E 023°32'0 0.2
2017-Sep-14 07:59N 38°02' E 023°32'0 0.0
2017-Sep-14 07:29N 38°02' E 023°32'0 0.1
2017-Sep-14 06:59N 38°02' E 023°32'0 0.1
2017-Sep-14 06:29N 38°02' E 023°32'0 0.1
2017-Sep-14 05:59N 38°02' E 023°32'0 0.1
2017-Sep-14 05:29N 38°02' E 023°32'0 0.1
2017-Sep-14 04:59N 38°02' E 023°32'1 1.5
2017-Sep-14 04:30N 38°02' E 023°31'1 1.0
2017-Sep-14 03:52N 38°02' E 023°31'0 0.0
2017-Sep-14 03:19N 38°02' E 023°31'0 0.0
2017-Sep-14 02:58N 38°02' E 023°31'0 0.0
2017-Sep-14 02:26N 38°02' E 023°31'0 0.0
2017-Sep-14 01:56N 38°02' E 023°31'0 0.0
2017-Sep-14 01:26N 38°02' E 023°31'0 0.0
2017-Sep-13 08:57N 38°02' E 023°31'1 2.0
2017-Sep-13 08:31N 38°01' E 023°31'3 6.4
2017-Sep-13 08:00N 38°02' E 023°35'0 0.5
2017-Sep-13 07:29N 38°02' E 023°36'0 0.0
2017-Sep-13 06:56N 38°02' E 023°36'0 0.0
2017-Sep-13 06:26N 38°02' E 023°36'0 0.0
2017-Sep-13 05:59N 38°02' E 023°36'0 0.0
2017-Sep-13 05:29N 38°02' E 023°36'0 0.0
2017-Sep-13 04:56N 38°02' E 023°36'0 0.0
2017-Sep-13 04:29N 38°02' E 023°36'0 0.0
2017-Sep-13 03:59N 38°02' E 023°36'0 0.0
2017-Sep-13 03:29N 38°02' E 023°36'0 0.0
2017-Sep-13 02:59N 38°02' E 023°36'0 0.0
2017-Sep-13 02:29N 38°02' E 023°36'0 0.0
2017-Sep-13 01:56N 38°02' E 023°36'0 0.0
2017-Sep-12 07:02N 38°02' E 023°36'0 0.3
2017-Sep-12 07:00N 38°02' E 023°36'3 5.5
2017-Sep-12 06:30N 38°01' E 023°32'1 1.2
2017-Sep-12 05:58N 38°02' E 023°32'0 0.0
2017-Sep-12 05:28N 38°02' E 023°32'0 0.0
2017-Sep-12 04:58N 38°02' E 023°32'0 0.0
2017-Sep-12 04:28N 38°02' E 023°32'0 0.0
2017-Sep-12 03:58N 38°02' E 023°32'0 0.0
2017-Sep-12 03:28N 38°02' E 023°32'0 0.0
2017-Sep-12 02:58N 38°02' E 023°32'0 0.0
2017-Sep-12 02:25N 38°02' E 023°32'0 0.1
2017-Sep-12 01:58N 38°02' E 023°32'0 0.0
2017-Sep-12 01:28N 38°02' E 023°32'0 0.0
2017-Sep-12 00:58N 38°02' E 023°32'0 0.0
2017-Sep-12 00:25N 38°02' E 023°31'0 0.0
2017-Sep-11 23:58N 38°02' E 023°32'0 0.0
2017-Sep-11 23:28N 38°02' E 023°31'0 0.1
2017-Sep-11 22:46N 38°02' E 023°31'0 0.1
2017-Sep-11 22:28N 38°02' E 023°31'0 0.1
2017-Sep-11 21:58N 38°02' E 023°31'0 0.1
2017-Sep-11 21:28N 38°02' E 023°31'0 0.1
2017-Sep-11 20:58N 38°02' E 023°31'0 0.0
2017-Sep-11 20:28N 38°02' E 023°31'0 0.0
2017-Sep-11 19:58N 38°02' E 023°31'0 0.0
2017-Sep-11 19:28N 38°02' E 023°31'0 0.0
2017-Sep-11 18:58N 38°02' E 023°31'0 0.1
2017-Sep-11 18:28N 38°02' E 023°31'0 0.0
2017-Sep-11 17:58N 38°02' E 023°31'0 0.0
2017-Sep-11 17:28N 38°02' E 023°31'0 0.0
2017-Sep-11 16:55N 38°02' E 023°31'0 0.0
2017-Sep-11 16:28N 38°02' E 023°31'0 0.0
2017-Sep-11 15:58N 38°02' E 023°31'0 0.0
2017-Sep-11 15:28N 38°02' E 023°31'0 0.0
2017-Sep-11 14:58N 38°02' E 023°31'0 0.0
2017-Sep-11 14:28N 38°02' E 023°31'0 0.0
2017-Sep-11 13:58N 38°02' E 023°31'0 0.0
2017-Sep-11 13:25N 38°02' E 023°31'0 0.0
2017-Sep-11 12:58N 38°02' E 023°31'0 0.0
2017-Sep-11 12:28N 38°02' E 023°31'0 0.0
2017-Sep-11 11:58N 38°02' E 023°31'0 0.0
2017-Sep-11 11:28N 38°02' E 023°31'0 0.0
2017-Sep-11 10:58N 38°02' E 023°31'0 0.0
2017-Sep-11 10:28N 38°02' E 023°31'0 0.0
2017-Sep-11 09:58N 38°02' E 023°31'0 0.0
2017-Sep-11 09:28N 38°02' E 023°31'0 0.0
2017-Sep-11 08:58N 38°02' E 023°31'0 0.0
2017-Sep-11 08:28N 38°02' E 023°31'0 0.0
2017-Sep-11 07:58N 38°02' E 023°31'0 0.1
2017-Sep-11 07:28N 38°02' E 023°31'0 0.0
2017-Sep-11 06:58N 38°02' E 023°31'0 0.0
2017-Sep-11 06:28N 38°02' E 023°31'0 0.0
2017-Sep-11 05:58N 38°02' E 023°31'0 0.0
2017-Sep-11 05:28N 38°02' E 023°31'0 0.0
2017-Sep-11 04:58N 38°02' E 023°31'0 0.0
2017-Sep-11 04:22N 38°02' E 023°31'0 0.1
2017-Sep-11 03:58N 38°02' E 023°31'0 0.1
2017-Sep-11 03:28N 38°02' E 023°31'0 0.1
2017-Sep-11 02:58N 38°02' E 023°31'0 0.0
2017-Sep-11 02:28N 38°02' E 023°31'0 0.0
2017-Sep-11 01:58N 38°02' E 023°31'0 0.0
2017-Sep-11 01:28N 38°02' E 023°31'0 0.0
2017-Sep-11 00:58N 38°02' E 023°31'0 0.1
2017-Sep-11 00:28N 38°02' E 023°31'0 0.1
2017-Sep-10 23:55N 38°02' E 023°31'0 0.1
2017-Sep-10 23:28N 38°02' E 023°31'0 0.0
2017-Sep-10 22:58N 38°02' E 023°31'0 0.0
2017-Sep-10 22:25N 38°02' E 023°31'0 0.0
2017-Sep-10 21:58N 38°02' E 023°31'0 0.1
2017-Sep-10 21:28N 38°02' E 023°31'0 0.0
2017-Sep-10 20:58N 38°02' E 023°31'0 0.0
2017-Sep-10 20:28N 38°02' E 023°31'0 0.0
2017-Sep-10 19:58N 38°02' E 023°31'0 0.0
2017-Sep-10 19:29N 38°02' E 023°31'0 0.1
2017-Sep-10 18:59N 38°02' E 023°31'0 0.1
2017-Sep-10 18:29N 38°02' E 023°31'0 0.0
2017-Sep-10 17:59N 38°02' E 023°31'0 0.0
2017-Sep-10 17:30N 38°02' E 023°31'0 0.0
2017-Sep-10 16:59N 38°02' E 023°31'0 0.0
2017-Sep-10 16:29N 38°02' E 023°31'0 0.0
2017-Sep-10 15:59N 38°02' E 023°31'0 0.0
2017-Sep-10 15:29N 38°02' E 023°31'0 0.0
2017-Sep-10 14:59N 38°02' E 023°31'0 0.0
2017-Sep-10 13:59N 38°02' E 023°31'0 0.0
2017-Sep-10 13:29N 38°02' E 023°31'0 0.0
2017-Sep-10 12:59N 38°02' E 023°31'0 0.0
2017-Sep-10 12:29N 38°02' E 023°31'0 0.0
2017-Sep-10 12:00N 38°02' E 023°31'0 0.0
2017-Sep-10 11:29N 38°02' E 023°31'0 0.0
2017-Sep-10 10:59N 38°02' E 023°31'0 0.0
2017-Sep-10 10:30N 38°02' E 023°31'0 0.0
2017-Sep-10 09:59N 38°02' E 023°31'0 0.0
2017-Sep-10 09:29N 38°02' E 023°31'0 0.0
2017-Sep-10 08:59N 38°02' E 023°31'0 0.0
2017-Sep-10 08:30N 38°02' E 023°31'0 0.0
2017-Sep-10 07:59N 38°02' E 023°31'0 0.0
2017-Sep-10 07:29N 38°02' E 023°31'0 0.0
2017-Sep-10 07:00N 38°02' E 023°31'0 0.1
2017-Sep-10 06:29N 38°02' E 023°31'0 0.0
2017-Sep-10 05:59N 38°02' E 023°31'0 0.0
2017-Sep-10 05:29N 38°02' E 023°31'0 0.0
2017-Sep-10 04:59N 38°02' E 023°31'0 0.0
2017-Sep-10 04:29N 38°02' E 023°31'0 0.0
2017-Sep-10 03:54N 38°02' E 023°31'0 0.0
2017-Sep-10 03:29N 38°02' E 023°31'0 0.0
2017-Sep-10 03:00N 38°02' E 023°31'0 0.0
2017-Sep-10 02:29N 38°02' E 023°31'0 0.0
2017-Sep-10 01:59N 38°02' E 023°31'0 0.0
2017-Sep-10 01:30N 38°02' E 023°31'0 0.0
2017-Sep-10 00:59N 38°02' E 023°31'0 0.0
2017-Sep-10 00:29N 38°02' E 023°31'0 0.0
2017-Sep-10 00:00N 38°02' E 023°31'0 0.0
2017-Sep-09 23:29N 38°02' E 023°31'0 0.0
2017-Sep-09 22:59N 38°02' E 023°31'0 0.0
2017-Sep-09 22:29N 38°02' E 023°31'0 0.0
2017-Sep-09 22:00N 38°02' E 023°31'0 0.1
2017-Sep-09 21:29N 38°02' E 023°31'0 0.0
2017-Sep-09 20:48N 38°02' E 023°31'0 0.0
2017-Sep-09 20:28N 38°02' E 023°31'0 0.0
2017-Sep-09 19:58N 38°02' E 023°31'  
Track history (hours):
 
Tides and Currents Weather Stations Pressure Air Temp Water Temp Dewpoint Dewpoint Depression Visibility Wind Speed Wind Dir Waves Ship Positions

Energeia

Last reported at 2017-Sep-19 19:46 UTC. Time now 2017-Sep-19 22:39 UTC.
Position N 38°33' E 024°24'.

Length 89 m; draft 6 m.

Type: Ship (hazmat cat D). MMSI: 210096000.

Date/timePositionNaut miles runAvg speedWind from/ knotsBaromVisibWave heightAir tempDewpointWater temp
2017-Sep-19 19:46N 38°33' E 024°24'312.5
2017-Sep-19 19:30N 38°36' E 024°22'612.0
2017-Sep-19 19:00N 38°41' E 024°18'51 1.4
2017-Sep-18 06:01N 39°17' E 023°31'5010.5
2017-Sep-18 01:15N 38°42' E 024°17'310.8
2017-Sep-18 01:00N 38°40' E 024°19'610.8
2017-Sep-18 00:26N 38°35' E 024°23'63 8.9
2017-Sep-17 17:20N 37°35' E 023°57'411.5
2017-Sep-17 17:00N 37°36' E 023°52'611.4
2017-Sep-17 16:30N 37°39' E 023°45'510.9
2017-Sep-17 16:00N 37°42' E 023°41'611.5
2017-Sep-17 15:30N 37°48' E 023°37'611.3
2017-Sep-17 15:00N 37°53' E 023°36'5 9.4
2017-Sep-17 14:30N 37°57' E 023°33'4 8.7
2017-Sep-17 14:00N 38°01' E 023°35'0 0.5
2017-Sep-17 13:30N 38°02' E 023°36'0 0.0
2017-Sep-17 13:00N 38°02' E 023°36'0 0.0
2017-Sep-17 12:30N 38°02' E 023°36'0 0.0
2017-Sep-17 12:00N 38°02' E 023°36'0 0.0
2017-Sep-17 10:00N 38°02' E 023°36'0 0.0
2017-Sep-17 09:18N 38°02' E 023°36'0 0.0
2017-Sep-17 09:00N 38°02' E 023°36'0 0.0
2017-Sep-17 06:06N 38°02' E 023°36'0 0.0
2017-Sep-16 23:12N 38°02' E 023°36'0 0.0
2017-Sep-16 23:00N 38°02' E 023°36'0 0.0
2017-Sep-16 22:30N 38°02' E 023°36'0 0.0
2017-Sep-16 22:00N 38°02' E 023°36'0 0.0
2017-Sep-16 21:30N 38°02' E 023°36'0 0.0
2017-Sep-16 21:00N 38°02' E 023°36'0 0.0
2017-Sep-16 20:30N 38°02' E 023°36'0 0.0
2017-Sep-16 20:00N 38°02' E 023°36'0 0.0
2017-Sep-16 19:30N 38°02' E 023°36'0 0.0
2017-Sep-16 19:00N 38°02' E 023°36'0 0.0
2017-Sep-16 18:30N 38°02' E 023°36'0 0.0
2017-Sep-16 18:00N 38°02' E 023°36'0 0.0
2017-Sep-16 17:30N 38°02' E 023°36'0 0.0
2017-Sep-16 17:00N 38°02' E 023°36'1 2.5
2017-Sep-16 16:30N 38°01' E 023°34'2 3.4
2017-Sep-16 16:00N 38°02' E 023°32'0 0.0
2017-Sep-16 15:30N 38°02' E 023°32'0 0.0
2017-Sep-16 15:00N 38°02' E 023°32'0 0.0
2017-Sep-16 14:30N 38°02' E 023°32'0 0.0
2017-Sep-16 14:00N 38°02' E 023°32'0 0.1
2017-Sep-16 13:30N 38°02' E 023°32'0 0.0
2017-Sep-16 13:00N 38°02' E 023°32'0 0.0
2017-Sep-16 12:30N 38°02' E 023°32'0 0.0
2017-Sep-16 11:57N 38°02' E 023°32'0 0.0
2017-Sep-16 11:30N 38°02' E 023°32'0 0.0
2017-Sep-16 11:00N 38°02' E 023°32'0 0.0
2017-Sep-16 10:30N 38°02' E 023°32'0 0.0
2017-Sep-16 10:00N 38°02' E 023°32'0 0.0
2017-Sep-16 09:30N 38°02' E 023°32'0 0.0
2017-Sep-16 08:57N 38°02' E 023°32'0 0.1
2017-Sep-16 08:30N 38°02' E 023°32'0 0.0
2017-Sep-16 08:00N 38°02' E 023°32'0 0.1
2017-Sep-16 07:21N 38°02' E 023°32'0 0.0
2017-Sep-16 07:00N 38°02' E 023°32'0 0.0
2017-Sep-16 06:24N 38°02' E 023°32'0 0.0
2017-Sep-16 06:00N 38°02' E 023°32'0 0.0
2017-Sep-16 05:27N 38°02' E 023°32'0 0.1
2017-Sep-16 05:00N 38°02' E 023°32'0 0.0
2017-Sep-16 04:30N 38°02' E 023°32'0 0.0
2017-Sep-16 03:54N 38°02' E 023°32'0 0.1
2017-Sep-16 03:30N 38°02' E 023°32'0 0.0
2017-Sep-16 03:00N 38°02' E 023°32'0 0.1
2017-Sep-16 02:30N 38°02' E 023°32'0 0.0
2017-Sep-16 02:00N 38°02' E 023°32'0 0.1
2017-Sep-16 01:30N 38°02' E 023°32'0 0.0
2017-Sep-16 00:54N 38°02' E 023°32'0 0.0
2017-Sep-16 00:30N 38°02' E 023°32'0 0.0
2017-Sep-16 00:00N 38°02' E 023°32'0 0.0
2017-Sep-15 23:30N 38°02' E 023°32'0 0.0
2017-Sep-15 23:00N 38°02' E 023°32'0 0.0
2017-Sep-15 22:30N 38°02' E 023°32'0 0.0
2017-Sep-15 22:00N 38°02' E 023°32'0 0.0
2017-Sep-15 21:27N 38°02' E 023°32'0 0.0
2017-Sep-15 21:00N 38°02' E 023°32'0 0.0
2017-Sep-15 20:30N 38°02' E 023°32'0 0.0
2017-Sep-15 20:00N 38°02' E 023°32'0 0.1
2017-Sep-15 19:30N 38°02' E 023°32'0 0.2
2017-Sep-15 18:57N 38°02' E 023°32'0 0.1
2017-Sep-15 18:30N 38°02' E 023°32'0 0.0
2017-Sep-15 18:00N 38°02' E 023°32'0 0.0
2017-Sep-15 17:30N 38°02' E 023°32'0 0.0
2017-Sep-15 17:00N 38°02' E 023°32'0 0.0
2017-Sep-15 16:30N 38°02' E 023°32'0 0.0
2017-Sep-15 16:00N 38°02' E 023°32'0 0.0
2017-Sep-15 15:30N 38°02' E 023°32'0 0.0
2017-Sep-15 15:00N 38°02' E 023°32'0 0.0
2017-Sep-15 14:30N 38°02' E 023°32'0 0.0
2017-Sep-15 13:57N 38°02' E 023°32'0 0.0
2017-Sep-15 13:29N 38°02' E 023°32'0 0.1
2017-Sep-15 12:59N 38°02' E 023°32'0 0.0
2017-Sep-15 12:29N 38°02' E 023°32'0 0.0
2017-Sep-15 11:59N 38°02' E 023°32'0 0.0
2017-Sep-15 11:29N 38°02' E 023°32'0 0.0
2017-Sep-15 10:59N 38°02' E 023°32'0 0.0
2017-Sep-15 10:29N 38°02' E 023°32'0 0.0
2017-Sep-15 09:59N 38°02' E 023°32'0 0.0
2017-Sep-15 09:23N 38°02' E 023°32'0 0.0
2017-Sep-15 08:59N 38°02' E 023°32'0 0.0
2017-Sep-15 08:29N 38°02' E 023°32'0 0.1
2017-Sep-15 07:59N 38°02' E 023°32'0 0.1
2017-Sep-15 07:29N 38°02' E 023°32'0 0.0
2017-Sep-15 06:56N 38°02' E 023°32'0 0.0
2017-Sep-15 06:26N 38°02' E 023°32'0 0.0
2017-Sep-15 05:59N 38°02' E 023°32'0 0.1
2017-Sep-15 05:29N 38°02' E 023°32'0 0.0
2017-Sep-15 04:59N 38°02' E 023°32'0 0.0
2017-Sep-15 04:29N 38°02' E 023°32'0 0.0
2017-Sep-15 03:59N 38°02' E 023°32'0 0.0
2017-Sep-15 03:26N 38°02' E 023°32'0 0.0
2017-Sep-15 02:59N 38°02' E 023°32'0 0.0
2017-Sep-15 02:29N 38°02' E 023°32'0 0.0
2017-Sep-15 01:59N 38°02' E 023°32'0 0.1
2017-Sep-15 01:29N 38°02' E 023°32'0 0.0
2017-Sep-15 00:59N 38°02' E 023°32'0 0.0
2017-Sep-15 00:29N 38°02' E 023°32'0 0.0
2017-Sep-14 23:59N 38°02' E 023°32'0 0.0
2017-Sep-14 23:29N 38°02' E 023°32'0 0.0
2017-Sep-14 22:59N 38°02' E 023°32'0 0.0
2017-Sep-14 22:29N 38°02' E 023°32'0 0.0
2017-Sep-14 21:59N 38°02' E 023°32'0 0.0
2017-Sep-14 21:29N 38°02' E 023°32'0 0.0
2017-Sep-14 20:59N 38°02' E 023°32'0 0.0
2017-Sep-14 20:29N 38°02' E 023°32'0 0.1
2017-Sep-14 19:59N 38°02' E 023°32'0 0.0
2017-Sep-14 19:29N 38°02' E 023°32'0 0.1
2017-Sep-14 18:59N 38°02' E 023°32'0 0.1
2017-Sep-14 18:29N 38°02' E 023°32'0 0.0
2017-Sep-14 17:59N 38°02' E 023°32'0 0.0
2017-Sep-14 17:29N 38°02' E 023°32'0 0.0
2017-Sep-14 16:59N 38°02' E 023°32'0 0.0
2017-Sep-14 16:29N 38°02' E 023°32'0 0.0
2017-Sep-14 15:59N 38°02' E 023°32'0 0.2
2017-Sep-14 15:29N 38°02' E 023°32'0 0.0
2017-Sep-14 14:56N 38°02' E 023°32'0 0.0
2017-Sep-14 14:29N 38°02' E 023°32'0 0.0
2017-Sep-14 13:56N 38°02' E 023°32'0 0.0
2017-Sep-14 13:23N 38°02' E 023°32'0 0.0
2017-Sep-14 12:59N 38°02' E 023°32'0 0.0
2017-Sep-14 12:29N 38°02' E 023°32'0 0.0
2017-Sep-14 11:59N 38°02' E 023°32'0 0.0
2017-Sep-14 11:29N 38°02' E 023°32'0 0.0
2017-Sep-14 10:59N 38°02' E 023°32'0 0.0
2017-Sep-14 10:26N 38°02' E 023°32'0 0.0
2017-Sep-14 09:59N 38°02' E 023°32'0 0.0
2017-Sep-14 09:29N 38°02' E 023°32'0 0.2
2017-Sep-14 08:59N 38°02' E 023°32'0 0.0
2017-Sep-14 08:29N 38°02' E 023°32'0 0.2
2017-Sep-14 07:59N 38°02' E 023°32'0 0.0
2017-Sep-14 07:29N 38°02' E 023°32'0 0.1
2017-Sep-14 06:59N 38°02' E 023°32'0 0.1
2017-Sep-14 06:29N 38°02' E 023°32'0 0.1
2017-Sep-14 05:59N 38°02' E 023°32'0 0.1
2017-Sep-14 05:29N 38°02' E 023°32'0 0.1
2017-Sep-14 04:59N 38°02' E 023°32'1 1.5
2017-Sep-14 04:30N 38°02' E 023°31'1 1.0
2017-Sep-14 03:52N 38°02' E 023°31'0 0.0
2017-Sep-14 03:19N 38°02' E 023°31'0 0.0
2017-Sep-14 02:58N 38°02' E 023°31'0 0.0
2017-Sep-14 02:26N 38°02' E 023°31'0 0.0
2017-Sep-14 01:56N 38°02' E 023°31'0 0.0
2017-Sep-14 01:26N 38°02' E 023°31'0 0.0
2017-Sep-13 08:57N 38°02' E 023°31'1 2.0
2017-Sep-13 08:31N 38°01' E 023°31'3 6.4
2017-Sep-13 08:00N 38°02' E 023°35'0 0.5
2017-Sep-13 07:29N 38°02' E 023°36'0 0.0
2017-Sep-13 06:56N 38°02' E 023°36'0 0.0
2017-Sep-13 06:26N 38°02' E 023°36'0 0.0
2017-Sep-13 05:59N 38°02' E 023°36'0 0.0
2017-Sep-13 05:29N 38°02' E 023°36'0 0.0
2017-Sep-13 04:56N 38°02' E 023°36'0 0.0
2017-Sep-13 04:29N 38°02' E 023°36'0 0.0
2017-Sep-13 03:59N 38°02' E 023°36'0 0.0
2017-Sep-13 03:29N 38°02' E 023°36'0 0.0
2017-Sep-13 02:59N 38°02' E 023°36'0 0.0
2017-Sep-13 02:29N 38°02' E 023°36'0 0.0
2017-Sep-13 01:56N 38°02' E 023°36'0 0.0
2017-Sep-12 07:02N 38°02' E 023°36'0 0.3
2017-Sep-12 07:00N 38°02' E 023°36'3 5.5
2017-Sep-12 06:30N 38°01' E 023°32'1 1.2
2017-Sep-12 05:58N 38°02' E 023°32'0 0.0
2017-Sep-12 05:28N 38°02' E 023°32'0 0.0
2017-Sep-12 04:58N 38°02' E 023°32'0 0.0
2017-Sep-12 04:28N 38°02' E 023°32'0 0.0
2017-Sep-12 03:58N 38°02' E 023°32'0 0.0
2017-Sep-12 03:28N 38°02' E 023°32'0 0.0
2017-Sep-12 02:58N 38°02' E 023°32'0 0.0
2017-Sep-12 02:25N 38°02' E 023°32'0 0.1
2017-Sep-12 01:58N 38°02' E 023°32'0 0.0
2017-Sep-12 01:28N 38°02' E 023°32'0 0.0
2017-Sep-12 00:58N 38°02' E 023°32'0 0.0
2017-Sep-12 00:25N 38°02' E 023°31'0 0.0
2017-Sep-11 23:58N 38°02' E 023°32'0 0.0
2017-Sep-11 23:28N 38°02' E 023°31'0 0.1
2017-Sep-11 22:46N 38°02' E 023°31'0 0.1
2017-Sep-11 22:28N 38°02' E 023°31'0 0.1
2017-Sep-11 21:58N 38°02' E 023°31'0 0.1
2017-Sep-11 21:28N 38°02' E 023°31'0 0.1
2017-Sep-11 20:58N 38°02' E 023°31'0 0.0
2017-Sep-11 20:28N 38°02' E 023°31'0 0.0
2017-Sep-11 19:58N 38°02' E 023°31'0 0.0
2017-Sep-11 19:28N 38°02' E 023°31'0 0.0
2017-Sep-11 18:58N 38°02' E 023°31'0 0.1
2017-Sep-11 18:28N 38°02' E 023°31'0 0.0
2017-Sep-11 17:58N 38°02' E 023°31'0 0.0
2017-Sep-11 17:28N 38°02' E 023°31'0 0.0
2017-Sep-11 16:55N 38°02' E 023°31'0 0.0
2017-Sep-11 16:28N 38°02' E 023°31'0 0.0
2017-Sep-11 15:58N 38°02' E 023°31'0 0.0
2017-Sep-11 15:28N 38°02' E 023°31'0 0.0
2017-Sep-11 14:58N 38°02' E 023°31'0 0.0
2017-Sep-11 14:28N 38°02' E 023°31'0 0.0
2017-Sep-11 13:58N 38°02' E 023°31'0 0.0
2017-Sep-11 13:25N 38°02' E 023°31'0 0.0
2017-Sep-11 12:58N 38°02' E 023°31'0 0.0
2017-Sep-11 12:28N 38°02' E 023°31'0 0.0
2017-Sep-11 11:58N 38°02' E 023°31'0 0.0
2017-Sep-11 11:28N 38°02' E 023°31'0 0.0
2017-Sep-11 10:58N 38°02' E 023°31'0 0.0
2017-Sep-11 10:28N 38°02' E 023°31'0 0.0
2017-Sep-11 09:58N 38°02' E 023°31'0 0.0
2017-Sep-11 09:28N 38°02' E 023°31'0 0.0
2017-Sep-11 08:58N 38°02' E 023°31'0 0.0
2017-Sep-11 08:28N 38°02' E 023°31'0 0.0
2017-Sep-11 07:58N 38°02' E 023°31'0 0.1
2017-Sep-11 07:28N 38°02' E 023°31'0 0.0
2017-Sep-11 06:58N 38°02' E 023°31'0 0.0
2017-Sep-11 06:28N 38°02' E 023°31'0 0.0
2017-Sep-11 05:58N 38°02' E 023°31'0 0.0
2017-Sep-11 05:28N 38°02' E 023°31'0 0.0
2017-Sep-11 04:58N 38°02' E 023°31'0 0.0
2017-Sep-11 04:22N 38°02' E 023°31'0 0.1
2017-Sep-11 03:58N 38°02' E 023°31'0 0.1
2017-Sep-11 03:28N 38°02' E 023°31'0 0.1
2017-Sep-11 02:58N 38°02' E 023°31'0 0.0
2017-Sep-11 02:28N 38°02' E 023°31'0 0.0
2017-Sep-11 01:58N 38°02' E 023°31'0 0.0
2017-Sep-11 01:28N 38°02' E 023°31'0 0.0
2017-Sep-11 00:58N 38°02' E 023°31'0 0.1
2017-Sep-11 00:28N 38°02' E 023°31'0 0.1
2017-Sep-10 23:55N 38°02' E 023°31'0 0.1
2017-Sep-10 23:28N 38°02' E 023°31'0 0.0
2017-Sep-10 22:58N 38°02' E 023°31'0 0.0
2017-Sep-10 22:25N 38°02' E 023°31'0 0.0
2017-Sep-10 21:58N 38°02' E 023°31'0 0.1
2017-Sep-10 21:28N 38°02' E 023°31'0 0.0
2017-Sep-10 20:58N 38°02' E 023°31'0 0.0
2017-Sep-10 20:28N 38°02' E 023°31'0 0.0
2017-Sep-10 19:58N 38°02' E 023°31'0 0.0
2017-Sep-10 19:29N 38°02' E 023°31'0 0.1
2017-Sep-10 18:59N 38°02' E 023°31'0 0.1
2017-Sep-10 18:29N 38°02' E 023°31'0 0.0
2017-Sep-10 17:59N 38°02' E 023°31'0 0.0
2017-Sep-10 17:30N 38°02' E 023°31'0 0.0
2017-Sep-10 16:59N 38°02' E 023°31'0 0.0
2017-Sep-10 16:29N 38°02' E 023°31'0 0.0
2017-Sep-10 15:59N 38°02' E 023°31'0 0.0
2017-Sep-10 15:29N 38°02' E 023°31'0 0.0
2017-Sep-10 14:59N 38°02' E 023°31'0 0.0
2017-Sep-10 13:59N 38°02' E 023°31'0 0.0
2017-Sep-10 13:29N 38°02' E 023°31'0 0.0
2017-Sep-10 12:59N 38°02' E 023°31'0 0.0
2017-Sep-10 12:29N 38°02' E 023°31'0 0.0
2017-Sep-10 12:00N 38°02' E 023°31'0 0.0
2017-Sep-10 11:29N 38°02' E 023°31'0 0.0
2017-Sep-10 10:59N 38°02' E 023°31'0 0.0
2017-Sep-10 10:30N 38°02' E 023°31'0 0.0
2017-Sep-10 09:59N 38°02' E 023°31'0 0.0
2017-Sep-10 09:29N 38°02' E 023°31'0 0.0
2017-Sep-10 08:59N 38°02' E 023°31'0 0.0
2017-Sep-10 08:30N 38°02' E 023°31'0 0.0
2017-Sep-10 07:59N 38°02' E 023°31'0 0.0
2017-Sep-10 07:29N 38°02' E 023°31'0 0.0
2017-Sep-10 07:00N 38°02' E 023°31'0 0.1
2017-Sep-10 06:29N 38°02' E 023°31'0 0.0
2017-Sep-10 05:59N 38°02' E 023°31'0 0.0
2017-Sep-10 05:29N 38°02' E 023°31'0 0.0
2017-Sep-10 04:59N 38°02' E 023°31'0 0.0
2017-Sep-10 04:29N 38°02' E 023°31'0 0.0
2017-Sep-10 03:54N 38°02' E 023°31'0 0.0
2017-Sep-10 03:29N 38°02' E 023°31'0 0.0
2017-Sep-10 03:00N 38°02' E 023°31'0 0.0
2017-Sep-10 02:29N 38°02' E 023°31'0 0.0
2017-Sep-10 01:59N 38°02' E 023°31'0 0.0
2017-Sep-10 01:30N 38°02' E 023°31'0 0.0
2017-Sep-10 00:59N 38°02' E 023°31'0 0.0
2017-Sep-10 00:29N 38°02' E 023°31'0 0.0
2017-Sep-10 00:00N 38°02' E 023°31'0 0.0
2017-Sep-09 23:29N 38°02' E 023°31'0 0.0
2017-Sep-09 22:59N 38°02' E 023°31'0 0.0
2017-Sep-09 22:29N 38°02' E 023°31'0 0.0
2017-Sep-09 22:00N 38°02' E 023°31'0 0.1
2017-Sep-09 21:29N 38°02' E 023°31'0 0.0
2017-Sep-09 20:48N 38°02' E 023°31'0 0.0
2017-Sep-09 20:28N 38°02' E 023°31'0 0.0
2017-Sep-09 19:58N 38°02' E 023°31'  

Dump ship's entire track history